Terminal Aerodrome Forecast
Issued by NWS

Home | Current Version | Previous Version | Text Only | Print | Product List | Glossary On
Versions: 1 2 3 4 5 6 7 8 9 10 11 12 13 14
000
FTUS45 KABQ 261740
TAFAEG
TAF
KAEG 261740Z 2618/2718 23014KT P6SM SCT100
     FM262000 25019G28KT P6SM SCT110 SCT150
     FM270100 29014KT P6SM SCT110 SCT150
     FM270600 30009KT P6SM SCT090 SCT140=

USA.gov is the U.S. government's official web portal to all federal, state and local government web resources and services.